createdAt,value
2019-03-29T00:00:12.537Z,15.37
2019-03-29T00:02:43.873Z,16.67
2019-03-29T00:05:14.992Z,16.13
2019-03-29T00:07:46.200Z,16.57
2019-03-29T00:10:17.347Z,16.77
2019-03-29T00:12:48.535Z,16.70
2019-03-29T00:15:19.740Z,18.00
2019-03-29T00:17:50.877Z,18.17
2019-03-29T00:20:22.020Z,20.10
2019-03-29T00:22:54.421Z,19.80
2019-03-29T00:25:25.605Z,18.60
2019-03-29T00:27:56.765Z,20.33
2019-03-29T00:30:27.927Z,19.17
2019-03-29T00:32:59.040Z,20.80
2019-03-29T00:35:30.212Z,21.70
2019-03-29T00:38:01.370Z,21.70
2019-03-29T00:40:33.185Z,20.77
2019-03-29T00:43:05.476Z,21.17
2019-03-29T00:45:36.616Z,21.67
2019-03-29T00:48:07.753Z,21.20
2019-03-29T00:50:38.857Z,23.17
2019-03-29T00:53:11.371Z,22.93
2019-03-29T00:55:42.488Z,22.87
2019-03-29T00:58:13.647Z,21.17
2019-03-29T01:00:44.891Z,23.00
2019-03-29T01:03:16.181Z,23.93
2019-03-29T01:05:47.451Z,24.03
2019-03-29T01:08:18.637Z,25.93
2019-03-29T01:10:50.108Z,24.10
2019-03-29T01:13:21.312Z,25.77
2019-03-29T01:15:52.429Z,25.13
2019-03-29T01:18:23.605Z,26.80
2019-03-29T01:20:54.913Z,25.47
2019-03-29T01:23:26.192Z,23.43
2019-03-29T01:25:57.344Z,24.77
2019-03-29T01:28:28.592Z,23.80
2019-03-29T01:31:00.019Z,24.20
2019-03-29T01:33:31.286Z,24.10
2019-03-29T01:36:02.498Z,27.00
2019-03-29T01:38:33.828Z,28.83
2019-03-29T01:41:05.256Z,26.33
2019-03-29T01:43:42.051Z,27.70
2019-03-29T01:46:09.268Z,24.50
2019-03-29T01:48:40.986Z,25.37
2019-03-29T01:51:12.359Z,24.27
2019-03-29T01:53:43.492Z,26.33
2019-03-29T01:56:14.966Z,25.17
2019-03-29T01:58:46.354Z,24.70
2019-03-29T02:01:17.525Z,25.37
2019-03-29T02:03:49.462Z,24.67
2019-03-29T02:06:20.644Z,25.20
2019-03-29T02:08:51.811Z,23.23
2019-03-29T02:11:22.957Z,23.47
2019-03-29T02:13:54.145Z,22.57
2019-03-29T02:16:25.404Z,24.00
2019-03-29T02:18:57.762Z,23.27
2019-03-29T02:21:31.833Z,26.33
2019-03-29T02:24:03.032Z,23.93
2019-03-29T02:26:34.233Z,24.00
2019-03-29T02:29:06.087Z,24.40
2019-03-29T02:31:41.766Z,25.40
2019-03-29T02:34:10.137Z,23.63
2019-03-29T02:36:41.368Z,25.53
2019-03-29T02:39:12.873Z,23.57
2019-03-29T02:41:44.149Z,26.00
2019-03-29T02:44:15.316Z,25.10
2019-03-29T02:46:46.544Z,25.60
2019-03-29T02:49:17.673Z,25.97
2019-03-29T02:51:48.854Z,24.40
2019-03-29T02:54:20.049Z,24.10
2019-03-29T02:56:51.283Z,24.30
2019-03-29T02:59:22.833Z,24.67
2019-03-29T03:01:54.017Z,24.73
2019-03-29T03:04:25.166Z,25.83
2019-03-29T03:06:56.703Z,25.70
2019-03-29T03:09:28.175Z,25.47
2019-03-29T03:11:59.625Z,24.63
2019-03-29T03:14:30.916Z,23.70
2019-03-29T03:17:02.294Z,24.60
2019-03-29T03:19:35.819Z,27.10
2019-03-29T03:22:07.086Z,25.40
2019-03-29T03:24:38.383Z,27.97
2019-03-29T03:27:09.540Z,27.27
2019-03-29T03:29:47.834Z,27.70
2019-03-29T03:32:16.351Z,27.67
2019-03-29T03:34:47.578Z,27.13
2019-03-29T03:37:18.720Z,28.37
2019-03-29T03:39:50.214Z,25.27
2019-03-29T03:42:21.977Z,25.50
2019-03-29T03:44:53.168Z,26.67
2019-03-29T03:47:24.329Z,25.47
2019-03-29T03:49:55.520Z,26.10
2019-03-29T03:52:26.775Z,23.40
2019-03-29T03:54:58.333Z,24.37
2019-03-29T03:57:30.367Z,25.37
2019-03-29T04:00:02.244Z,24.37
2019-03-29T04:02:33.680Z,24.53
2019-03-29T04:05:05.005Z,24.37
2019-03-29T04:07:36.276Z,24.90
2019-03-29T04:10:07.554Z,24.03
2019-03-29T04:12:38.754Z,25.37
2019-03-29T04:15:10.217Z,23.30
2019-03-29T04:17:41.465Z,22.90
2019-03-29T04:20:12.692Z,23.30
2019-03-29T04:22:43.884Z,23.67
2019-03-29T04:25:15.108Z,23.77
2019-03-29T04:27:46.278Z,23.00
2019-03-29T04:30:17.485Z,22.60
2019-03-29T04:32:48.607Z,22.80
2019-03-29T04:35:19.874Z,23.07
2019-03-29T04:37:51.005Z,23.73
2019-03-29T04:40:22.196Z,25.27
2019-03-29T04:42:53.380Z,24.47
2019-03-29T04:45:24.561Z,24.27
2019-03-29T04:47:55.824Z,23.23
2019-03-29T04:50:26.929Z,25.67
2019-03-29T04:52:58.248Z,24.70
2019-03-29T04:55:29.447Z,26.07
2019-03-29T04:58:00.837Z,24.93
2019-03-29T05:00:32.273Z,25.20
2019-03-29T05:03:03.701Z,25.00
2019-03-29T05:05:34.891Z,27.33
2019-03-29T05:08:06.009Z,26.63
2019-03-29T05:10:39.384Z,25.10
2019-03-29T05:13:10.598Z,26.63
2019-03-29T05:15:41.723Z,25.30
2019-03-29T05:18:12.996Z,26.93
2019-03-29T05:20:44.272Z,26.30
2019-03-29T05:23:15.367Z,25.67
2019-03-29T05:25:46.542Z,26.37
2019-03-29T05:28:17.783Z,25.83
2019-03-29T05:30:49.097Z,25.10
2019-03-29T05:33:20.408Z,25.13
2019-03-29T05:35:53.678Z,26.00
2019-03-29T05:38:24.871Z,25.90
2019-03-29T05:40:56.098Z,24.50
2019-03-29T05:43:27.267Z,25.53
2019-03-29T05:45:58.457Z,23.53
2019-03-29T05:48:29.576Z,24.97
2019-03-29T05:51:00.716Z,23.10
2019-03-29T05:53:31.912Z,22.80
2019-03-29T05:56:03.093Z,23.83
2019-03-29T05:58:34.236Z,23.57
2019-03-29T06:01:05.428Z,22.70
2019-03-29T06:03:36.612Z,21.80
2019-03-29T06:06:07.806Z,21.63
2019-03-29T06:08:38.953Z,19.13
2019-03-29T06:11:10.265Z,17.93
2019-03-29T06:13:41.492Z,18.57
2019-03-29T06:16:12.888Z,17.07
2019-03-29T06:18:46.911Z,17.43
2019-03-29T06:21:18.103Z,18.60
2019-03-29T06:23:49.245Z,17.53
2019-03-29T06:26:20.505Z,17.60
2019-03-29T06:28:51.692Z,19.17
2019-03-29T11:16:52.794Z,11.73
2019-03-29T11:19:23.969Z,11.63
2019-03-29T11:21:55.170Z,11.80
2019-03-29T11:24:26.380Z,11.40
2019-03-29T11:26:57.693Z,11.57
2019-03-29T11:29:29.117Z,13.20
2019-03-29T11:32:00.349Z,11.87
2019-03-29T11:34:31.607Z,12.73
2019-03-29T11:37:02.750Z,12.90
2019-03-29T11:39:33.913Z,12.83
2019-03-29T11:42:05.146Z,12.50
2019-03-29T11:44:36.481Z,12.67
2019-03-29T11:47:07.797Z,11.10
2019-03-29T11:49:39.110Z,11.50
2019-03-29T11:52:10.575Z,13.37
2019-03-29T11:54:41.820Z,11.40
2019-03-29T11:57:13.309Z,13.47
2019-03-29T11:59:44.445Z,13.93
2019-03-29T12:02:30.162Z,12.67
2019-03-29T12:04:48.441Z,12.43
2019-03-29T12:07:19.621Z,12.43
2019-03-29T12:09:50.780Z,12.10
2019-03-29T12:12:21.997Z,11.60
2019-03-29T12:14:53.184Z,12.60
2019-03-29T12:17:24.430Z,12.20
2019-03-29T12:19:55.618Z,12.53
2019-03-29T12:22:26.836Z,12.17
2019-03-29T12:24:58.097Z,13.50
2019-03-29T12:27:29.276Z,12.20
2019-03-29T12:30:03.151Z,11.10
2019-03-29T12:32:34.308Z,11.80
2019-03-29T12:35:09.748Z,11.53
2019-03-29T12:37:39.556Z,11.80
2019-03-29T12:40:11.681Z,11.20
2019-03-29T12:42:43.232Z,11.20
2019-03-29T12:45:14.566Z,11.73
2019-03-29T12:47:45.844Z,10.87
2019-03-29T12:50:17.139Z,10.23
2019-03-29T12:52:48.355Z,11.83
2019-03-29T12:55:19.553Z,13.00
2019-03-29T12:57:50.705Z,11.60
2019-03-29T13:00:23.795Z,11.77
2019-03-29T13:02:55.004Z,10.87
2019-03-29T13:05:26.146Z,10.87
2019-03-29T13:07:57.561Z,10.90
2019-03-29T13:10:28.770Z,12.03
2019-03-29T13:13:00.715Z,12.17
2019-03-29T13:15:32.839Z,11.40
2019-03-29T13:18:04.167Z,10.97
2019-03-29T13:20:35.493Z,11.53
2019-03-29T13:23:06.815Z,11.50
2019-03-29T13:25:38.021Z,11.10
2019-03-29T13:28:09.239Z,11.33
2019-03-29T13:30:40.560Z,11.57
2019-03-29T13:33:11.713Z,11.03
2019-03-29T13:35:44.566Z,11.90
2019-03-29T13:38:16.127Z,11.43
2019-03-29T13:40:47.362Z,11.50
2019-03-29T13:43:18.525Z,11.87
2019-03-29T13:45:49.812Z,10.93
2019-03-29T13:48:21.132Z,12.50
2019-03-29T13:50:52.389Z,11.70
2019-03-29T13:53:23.673Z,12.20
2019-03-29T13:55:54.915Z,11.93
2019-03-29T13:58:26.020Z,10.60
2019-03-29T14:00:57.857Z,11.87
2019-03-29T14:03:29.050Z,11.87
2019-03-29T14:06:00.304Z,12.63
2019-03-29T14:08:31.545Z,12.13
2019-03-29T14:11:02.971Z,11.60
2019-03-29T14:13:34.251Z,13.97
2019-03-29T14:16:05.553Z,12.60
2019-03-29T14:18:36.737Z,11.80
2019-03-29T14:21:07.962Z,11.40
2019-03-29T14:23:39.313Z,12.50
2019-03-29T14:26:10.624Z,11.03
2019-03-29T14:28:41.805Z,11.90
2019-03-29T14:31:13.081Z,11.33
2019-03-29T14:33:44.339Z,12.70
2019-03-29T14:36:15.654Z,11.63
2019-03-29T14:38:46.933Z,11.23
2019-03-29T14:41:18.217Z,12.50
2019-03-29T14:43:49.664Z,10.70
2019-03-29T14:46:20.830Z,13.10
2019-03-29T14:48:52.287Z,13.13
2019-03-29T14:51:23.566Z,14.17
2019-03-29T14:53:57.617Z,11.93
2019-03-29T14:56:29.092Z,12.07
2019-03-29T14:59:00.357Z,15.00
2019-03-29T15:01:31.737Z,13.87
2019-03-29T15:04:03.017Z,13.00
2019-03-29T15:06:34.405Z,13.07
2019-03-29T15:09:07.351Z,13.77
2019-03-29T15:11:38.495Z,12.03
2019-03-29T15:14:09.744Z,12.30
2019-03-29T15:16:40.950Z,12.00
2019-03-29T15:19:13.477Z,13.70
2019-03-29T15:21:45.942Z,14.43
2019-03-29T15:24:17.609Z,14.00
2019-03-29T15:26:48.908Z,13.80
2019-03-29T15:29:20.181Z,13.53
2019-03-29T15:31:51.612Z,14.17
2019-03-29T15:34:23.332Z,12.97
2019-03-29T15:36:54.598Z,12.20
2019-03-29T15:39:26.257Z,12.17
2019-03-29T15:41:57.484Z,14.77
2019-03-29T15:44:28.699Z,13.80
2019-03-29T15:46:59.921Z,14.47
2019-03-29T15:49:31.117Z,12.50
2019-03-29T15:52:02.461Z,13.47
2019-03-29T15:54:33.822Z,13.60
2019-03-29T15:57:07.826Z,14.40
2019-03-29T15:59:38.062Z,13.50
2019-03-29T16:02:09.386Z,14.13
2019-03-29T16:04:40.596Z,14.47
2019-03-29T16:07:12.257Z,14.17
2019-03-29T16:09:43.666Z,13.90
2019-03-29T16:12:15.024Z,14.00
2019-03-29T16:14:46.392Z,12.60
2019-03-29T16:17:17.616Z,12.33
2019-03-29T16:19:49.752Z,15.23
2019-03-29T16:22:21.089Z,14.20
2019-03-29T16:24:52.381Z,16.53
2019-03-29T16:27:25.231Z,16.10
2019-03-29T16:29:56.793Z,14.50
2019-03-29T16:32:28.129Z,15.30
2019-03-29T16:34:59.408Z,13.80
2019-03-29T16:37:30.660Z,14.50
2019-03-29T16:40:01.900Z,14.10
2019-03-29T16:42:33.119Z,13.00
2019-03-29T16:45:05.062Z,15.30
2019-03-29T16:47:36.443Z,15.50
2019-03-29T16:50:08.943Z,14.13
2019-03-29T16:52:40.181Z,13.33
2019-03-29T16:55:14.403Z,12.37
2019-03-29T16:57:45.785Z,12.83
2019-03-29T17:00:20.305Z,12.00
2019-03-29T17:02:51.516Z,12.03
2019-03-29T17:05:23.112Z,12.57
2019-03-29T17:07:54.360Z,12.20
2019-03-29T17:10:25.549Z,13.27
2019-03-29T17:12:56.819Z,12.60
2019-03-29T17:15:28.074Z,12.40
2019-03-29T17:17:59.394Z,13.20
2019-03-29T17:20:30.677Z,12.97
2019-03-29T17:23:01.874Z,12.77
2019-03-29T17:25:33.064Z,12.50
2019-03-29T17:28:04.475Z,12.13
2019-03-29T17:30:39.013Z,11.63
2019-03-29T17:33:10.155Z,11.80
2019-03-29T17:35:44.724Z,12.83
2019-03-29T17:38:16.010Z,14.90
2019-03-29T17:40:47.297Z,12.43
2019-03-29T17:43:18.523Z,12.80
2019-03-29T17:45:49.741Z,11.50
2019-03-29T17:48:20.939Z,12.30
2019-03-29T17:50:52.145Z,13.60
2019-03-29T17:53:24.263Z,13.83
2019-03-29T17:55:56.318Z,14.80
2019-03-29T17:58:30.303Z,14.23
2019-03-29T18:01:01.617Z,15.27
2019-03-29T18:03:34.183Z,15.83
2019-03-29T18:06:05.837Z,16.30
2019-03-29T18:08:37.224Z,16.03
2019-03-29T18:11:09.438Z,15.10
2019-03-29T18:13:40.662Z,16.27
2019-03-29T18:16:12.346Z,18.30
2019-03-29T18:18:43.666Z,16.50
2019-03-29T18:21:14.997Z,18.20
2019-03-29T18:23:46.497Z,17.97
2019-03-29T18:26:20.474Z,18.67
2019-03-29T18:28:51.664Z,19.37
2019-03-29T18:31:25.088Z,17.67
2019-03-29T18:33:58.769Z,15.73
2019-03-29T18:36:30.634Z,16.80
2019-03-29T18:39:02.482Z,15.00
2019-03-29T18:41:34.870Z,15.60
2019-03-29T18:44:06.328Z,17.27
2019-03-29T18:46:44.464Z,17.33
2019-03-29T18:49:10.679Z,17.73
2019-03-29T18:51:42.227Z,19.90
2019-03-29T18:54:16.085Z,17.80
2019-03-29T18:56:47.738Z,17.60
2019-03-29T18:59:20.769Z,17.07
2019-03-29T19:01:52.293Z,21.20
2019-03-29T19:04:28.542Z,22.70
2019-03-29T19:06:59.935Z,19.90
2019-03-29T19:09:31.718Z,17.43
2019-03-29T19:12:08.762Z,16.87
2019-03-29T19:14:41.715Z,16.97
2019-03-29T19:17:13.420Z,18.90
2019-03-29T19:19:44.661Z,17.60
2019-03-29T19:22:16.126Z,19.30
2019-03-29T19:24:47.411Z,25.07
2019-03-29T19:27:19.284Z,23.77
2019-03-29T19:29:50.520Z,24.67
2019-03-29T19:32:23.269Z,24.90
2019-03-29T19:34:54.453Z,25.80
2019-03-29T19:37:27.804Z,23.70
2019-03-29T19:39:59.136Z,21.77
2019-03-29T19:42:30.914Z,21.90
2019-03-29T19:45:02.299Z,27.77
2019-03-29T19:47:33.651Z,22.43
2019-03-29T19:50:08.247Z,22.67
2019-03-29T19:52:42.691Z,26.70
2019-03-29T19:55:14.100Z,22.57
2019-03-29T19:57:49.958Z,20.90
2019-03-29T20:00:26.463Z,19.50
2019-03-29T20:02:58.079Z,18.30
2019-03-29T20:05:31.608Z,19.70
2019-03-29T20:08:03.461Z,20.00
2019-03-29T20:10:34.661Z,17.90
2019-03-29T20:13:06.430Z,18.37
2019-03-29T20:15:37.666Z,17.20
2019-03-29T20:18:17.280Z,16.00
2019-03-29T20:20:51.063Z,17.13
2019-03-29T20:23:22.259Z,18.10
2019-03-29T20:25:55.249Z,18.00
2019-03-29T20:28:28.158Z,18.63
2019-03-29T20:30:59.391Z,17.90
2019-03-29T20:33:30.553Z,20.37
2019-03-29T20:36:01.774Z,17.57
2019-03-29T20:38:33.131Z,17.97
2019-03-29T20:41:07.227Z,18.10
2019-03-29T20:43:38.521Z,18.60
2019-03-29T20:46:10.042Z,18.90
2019-03-29T20:48:43.611Z,20.13
2019-03-29T20:51:14.890Z,19.60
2019-03-29T20:53:47.782Z,20.50
2019-03-29T20:56:19.417Z,20.10
2019-03-29T20:58:50.737Z,19.77
2019-03-29T21:01:22.276Z,17.53
2019-03-29T21:03:53.709Z,17.73
2019-03-29T21:06:25.139Z,16.47
2019-03-29T21:08:56.337Z,16.30
2019-03-29T21:11:27.661Z,17.53
2019-03-29T21:14:02.501Z,16.30
2019-03-29T21:16:34.127Z,17.80
2019-03-29T21:19:05.824Z,17.87
2019-03-29T21:21:37.335Z,16.00
2019-03-29T21:24:08.569Z,16.33
2019-03-29T21:26:39.723Z,17.83
2019-03-29T21:29:12.889Z,15.93
2019-03-29T21:31:44.238Z,15.30
2019-03-29T21:34:15.416Z,15.67
2019-03-29T21:36:46.635Z,14.63
2019-03-29T21:39:17.866Z,13.90
2019-03-29T21:41:49.223Z,13.03
2019-03-29T21:44:20.456Z,14.37
2019-03-29T21:46:51.917Z,14.27
2019-03-29T21:49:26.751Z,13.90
2019-03-29T21:51:57.979Z,14.67
2019-03-29T21:54:29.221Z,15.50
2019-03-29T21:57:01.790Z,13.40
2019-03-29T21:59:33.140Z,13.90
2019-03-29T22:02:04.572Z,15.30
2019-03-29T22:04:38.097Z,15.03
2019-03-29T22:07:09.597Z,14.90
2019-03-29T22:09:41.262Z,15.07
2019-03-29T22:12:13.841Z,14.70
2019-03-29T22:14:45.376Z,15.80
2019-03-29T22:17:16.944Z,13.73
2019-03-29T22:19:48.481Z,14.70
2019-03-29T22:22:22.814Z,14.33
2019-03-29T22:24:54.114Z,14.40
2019-03-29T22:27:25.590Z,13.03
2019-03-29T22:29:56.864Z,13.87
2019-03-29T22:32:28.438Z,11.70
2019-03-29T22:34:59.635Z,14.90
2019-03-29T22:37:30.912Z,14.13
2019-03-29T22:40:02.120Z,14.90
2019-03-29T22:42:33.462Z,15.13
2019-03-29T22:45:07.044Z,14.17
2019-03-29T22:47:38.209Z,15.07
2019-03-29T22:50:09.759Z,16.50
2019-03-29T22:52:41.065Z,15.73
2019-03-29T22:55:12.187Z,14.97
2019-03-29T22:57:43.796Z,14.57
2019-03-29T23:00:20.833Z,15.00
2019-03-29T23:02:52.610Z,14.50
2019-03-29T23:05:23.968Z,14.80
2019-03-29T23:07:55.141Z,15.20
2019-03-29T23:10:26.691Z,14.70
2019-03-29T23:12:57.882Z,13.63
2019-03-29T23:15:29.176Z,15.20
2019-03-29T23:18:00.472Z,14.93
2019-03-29T23:20:31.951Z,13.87
2019-03-29T23:23:03.265Z,13.47
2019-03-29T23:25:34.627Z,14.50
2019-03-29T23:28:06.124Z,14.07
2019-03-29T23:30:37.376Z,13.30
2019-03-29T23:33:08.634Z,14.73
2019-03-29T23:35:39.788Z,13.67
2019-03-29T23:38:10.969Z,13.50
2019-03-29T23:40:42.167Z,13.73
2019-03-29T23:43:13.537Z,13.20
2019-03-29T23:45:44.752Z,15.17
2019-03-29T23:48:16.142Z,14.60
2019-03-29T23:50:47.628Z,13.70
2019-03-29T23:53:18.949Z,14.77
2019-03-29T23:55:50.165Z,14.33
2019-03-29T23:58:21.470Z,14.53
